createdAt,value
2022-09-23T00:01:26.831Z,10.44
2022-09-23T00:03:53.684Z,10.67
2022-09-23T00:06:23.100Z,11.04
2022-09-23T00:08:52.672Z,11.03
2022-09-23T00:11:24.242Z,10.97
2022-09-23T00:13:53.703Z,10.48
2022-09-23T00:16:22.030Z,10.95
2022-09-23T00:18:51.192Z,10.51
2022-09-23T00:21:19.352Z,10.34
2022-09-23T00:23:48.696Z,10.49
2022-09-23T00:26:19.099Z,10.15
2022-09-23T00:28:48.618Z,10.87
2022-09-23T00:31:29.370Z,10.83
2022-09-23T00:33:59.929Z,10.81
2022-09-23T00:36:29.894Z,10.79
2022-09-23T00:38:59.284Z,10.86
2022-09-23T00:41:26.778Z,10.58
2022-09-23T00:43:57.518Z,10.91
2022-09-23T00:46:31.267Z,10.56
2022-09-23T00:49:23.781Z,10.23
2022-09-23T00:51:54.522Z,10.40
2022-09-23T00:54:22.277Z,10.40
2022-09-23T00:56:54.866Z,10.62
2022-09-23T00:59:24.486Z,10.16
2022-09-23T01:01:58.226Z,9.98
2022-09-23T01:04:29.572Z,10.21
2022-09-23T01:06:59.049Z,10.57
2022-09-23T01:09:30.557Z,10.45
2022-09-23T01:12:14.744Z,9.95
2022-09-23T01:15:00.474Z,10.70
2022-09-23T01:17:30.162Z,10.43
2022-09-23T01:20:06.304Z,10.66
2022-09-23T01:22:51.211Z,10.82
2022-09-23T01:25:42.200Z,10.78
2022-09-23T01:28:42.453Z,10.70
2022-09-23T01:31:35.874Z,10.20
2022-09-23T01:34:35.636Z,10.33
2022-09-23T01:37:16.021Z,10.31
2022-09-23T01:40:10.250Z,10.26
2022-09-23T01:43:16.078Z,10.00
2022-09-23T01:45:46.204Z,10.04
2022-09-23T01:48:36.361Z,10.18
2022-09-23T01:51:14.239Z,10.12
2022-09-23T01:53:55.955Z,10.08
2022-09-23T01:56:27.145Z,9.61
2022-09-23T01:59:14.651Z,10.16
2022-09-23T02:01:50.883Z,10.05
2022-09-23T02:04:25.426Z,10.08
2022-09-23T02:07:05.090Z,9.95
2022-09-23T02:10:00.720Z,10.16
2022-09-23T02:12:29.976Z,10.30
2022-09-23T02:15:02.901Z,10.33
2022-09-23T02:17:36.965Z,9.62
2022-09-23T02:20:06.077Z,9.99
2022-09-23T02:23:06.182Z,10.37
2022-09-23T02:25:45.992Z,9.73
2022-09-23T02:28:19.261Z,10.28
2022-09-23T02:30:56.192Z,10.10
2022-09-23T02:33:35.317Z,8.93
2022-09-23T02:36:12.820Z,9.75
2022-09-23T02:38:51.161Z,9.11
2022-09-23T02:41:32.655Z,9.62
2022-09-23T02:44:06.250Z,9.38
2022-09-23T02:46:33.788Z,9.00
2022-09-23T02:49:04.708Z,9.98
2022-09-23T02:51:35.032Z,9.84
2022-09-23T02:54:03.571Z,9.13
2022-09-23T02:56:30.258Z,9.78
2022-09-23T02:58:57.009Z,9.37
2022-09-23T03:01:47.682Z,9.73
2022-09-23T03:04:31.651Z,9.75
2022-09-23T03:07:06.353Z,9.72
2022-09-23T03:09:40.836Z,9.72
2022-09-23T03:12:36.146Z,9.72
2022-09-23T03:15:14.324Z,9.68
2022-09-23T03:18:03.664Z,9.36
2022-09-23T03:20:49.531Z,9.53
2022-09-23T03:23:19.859Z,9.11
2022-09-23T03:25:49.975Z,9.57
2022-09-23T03:28:20.324Z,7.13
2022-09-23T03:30:47.144Z,8.90
2022-09-23T03:33:16.699Z,8.99
2022-09-23T03:36:09.441Z,8.92
2022-09-23T03:38:39.113Z,9.40
2022-09-23T03:41:05.850Z,9.11
2022-09-23T03:43:38.724Z,9.34
2022-09-23T03:46:25.394Z,8.58
2022-09-23T03:48:52.155Z,9.11
2022-09-23T03:51:23.869Z,9.12
2022-09-23T03:53:55.517Z,9.30
2022-09-23T03:56:23.607Z,9.66
2022-09-23T03:58:50.278Z,9.58
2022-09-23T04:01:19.649Z,9.32
2022-09-23T04:03:49.123Z,8.63
2022-09-23T04:06:22.411Z,9.52
2022-09-23T04:08:51.619Z,8.06
2022-09-23T04:11:21.574Z,9.05
2022-09-23T04:13:53.619Z,9.29
2022-09-23T04:16:20.456Z,9.04
2022-09-23T04:18:47.129Z,8.56
2022-09-23T04:21:13.831Z,8.56
2022-09-23T04:23:42.901Z,8.50
2022-09-23T04:26:10.156Z,8.92
2022-09-23T04:28:36.897Z,9.13
2022-09-23T04:31:05.142Z,9.09
2022-09-23T04:33:38.919Z,9.06
2022-09-23T04:36:08.320Z,9.41
2022-09-23T04:38:35.032Z,9.02
2022-09-23T04:41:04.205Z,8.98
2022-09-23T04:43:35.734Z,9.13
2022-09-23T04:46:11.265Z,9.38
2022-09-23T04:48:41.808Z,9.53
2022-09-23T04:51:10.857Z,9.43
2022-09-23T04:53:39.275Z,9.45
2022-09-23T04:56:09.851Z,9.49
2022-09-23T04:58:36.837Z,9.52
2022-09-23T05:01:18.817Z,9.53
2022-09-23T05:03:46.368Z,9.03
2022-09-23T05:06:20.501Z,9.08
2022-09-23T05:08:54.859Z,9.06
2022-09-23T05:11:22.044Z,9.45
2022-09-23T05:13:50.639Z,9.28
2022-09-23T05:16:19.883Z,9.58
2022-09-23T05:18:48.316Z,9.54
2022-09-23T05:21:19.351Z,9.57
2022-09-23T05:23:56.564Z,9.64
2022-09-23T05:26:27.319Z,9.38
2022-09-23T05:28:59.206Z,9.48
2022-09-23T05:31:29.840Z,9.88
2022-09-23T05:33:58.830Z,9.29
2022-09-23T05:36:28.881Z,9.95
2022-09-23T05:38:56.579Z,10.01
2022-09-23T05:41:23.937Z,10.08
2022-09-23T05:43:54.213Z,10.12
2022-09-23T05:46:28.162Z,10.24
2022-09-23T05:49:06.754Z,10.27
2022-09-23T05:51:35.707Z,10.30
2022-09-23T05:54:04.314Z,10.10
2022-09-23T05:56:32.098Z,10.21
2022-09-23T05:59:00.657Z,10.46
2022-09-23T06:01:32.252Z,10.59
2022-09-23T06:04:00.068Z,10.14
2022-09-23T06:06:37.081Z,10.06
2022-09-23T06:09:06.621Z,10.68
2022-09-23T06:11:34.822Z,10.75
2022-09-23T06:14:02.517Z,10.62
2022-09-23T06:16:34.789Z,10.99
2022-09-23T06:19:07.816Z,11.07
2022-09-23T06:21:36.566Z,11.12
2022-09-23T06:24:07.013Z,11.02
2022-09-23T06:26:37.766Z,11.14
2022-09-23T06:29:14.597Z,11.09
2022-09-23T06:31:43.680Z,11.13
2022-09-23T06:34:13.412Z,10.21
2022-09-23T06:36:45.882Z,11.14
2022-09-23T06:39:15.832Z,10.56
2022-09-23T06:41:42.590Z,11.29
2022-09-23T06:44:15.620Z,11.23
2022-09-23T06:46:44.808Z,11.54
2022-09-23T06:49:16.365Z,10.98
2022-09-23T06:51:45.569Z,11.27
2022-09-23T06:54:12.267Z,11.80
2022-09-23T06:56:39.993Z,11.64
2022-09-23T06:59:09.659Z,11.46
2022-09-23T07:01:36.336Z,11.99
2022-09-23T07:04:03.199Z,11.29
2022-09-23T07:06:29.889Z,12.03
2022-09-23T07:08:59.072Z,11.56
2022-09-23T07:11:25.837Z,12.32
2022-09-23T07:13:52.497Z,12.43
2022-09-23T07:16:19.299Z,12.19
2022-09-23T07:18:46.398Z,12.04
2022-09-23T07:21:17.428Z,12.59
2022-09-23T07:23:48.194Z,12.35
2022-09-23T07:26:16.092Z,12.67
2022-09-23T07:28:45.588Z,12.69
2022-09-23T07:31:22.748Z,12.58
2022-09-23T07:33:59.433Z,13.09
2022-09-23T07:36:28.042Z,13.22
2022-09-23T07:39:00.957Z,13.35
2022-09-23T07:41:28.973Z,12.85
2022-09-23T07:44:01.450Z,13.64
2022-09-23T07:46:30.562Z,12.91
2022-09-23T07:48:57.869Z,13.01
2022-09-23T07:51:30.810Z,13.99
2022-09-23T07:54:00.115Z,13.93
2022-09-23T07:56:31.631Z,13.83
2022-09-23T07:59:04.588Z,13.64
2022-09-23T08:01:36.568Z,14.43
2022-09-23T08:04:13.487Z,14.25
2022-09-23T08:06:42.451Z,14.49
2022-09-23T08:09:09.415Z,14.23
2022-09-23T08:11:41.777Z,14.00
2022-09-23T08:14:13.636Z,14.52
2022-09-23T08:16:41.345Z,14.59
2022-09-23T08:19:10.946Z,14.10
2022-09-23T08:21:41.782Z,14.72
2022-09-23T08:24:15.828Z,15.04
2022-09-23T08:26:44.138Z,15.02
2022-09-23T08:29:14.703Z,15.04
2022-09-23T08:31:42.022Z,15.10
2022-09-23T08:34:09.150Z,14.63
2022-09-23T08:36:38.958Z,15.04
2022-09-23T08:39:06.482Z,14.55
2022-09-23T08:41:59.011Z,15.36
2022-09-23T08:44:51.380Z,15.24
2022-09-23T08:47:39.230Z,15.11
2022-09-23T08:50:11.437Z,15.22
2022-09-23T08:52:58.856Z,15.14
2022-09-23T08:55:38.963Z,14.90
2022-09-23T08:58:30.866Z,15.93
2022-09-23T09:01:16.326Z,15.92
2022-09-23T09:03:53.843Z,16.02
2022-09-23T09:06:36.222Z,15.61
2022-09-23T09:09:33.048Z,15.89
2022-09-23T09:12:22.763Z,16.64
2022-09-23T09:15:11.519Z,16.58
2022-09-23T09:17:44.050Z,16.16
2022-09-23T09:20:38.986Z,16.64
2022-09-23T09:23:23.321Z,16.16
2022-09-23T09:25:50.017Z,16.56
2022-09-23T09:28:47.599Z,15.60
2022-09-23T09:31:22.489Z,16.55
2022-09-23T09:34:06.249Z,16.45
2022-09-23T09:36:53.118Z,17.14
2022-09-23T09:39:22.930Z,16.84
2022-09-23T09:41:58.575Z,17.54
2022-09-23T09:44:25.297Z,17.75
2022-09-23T09:46:59.091Z,17.15
2022-09-23T09:49:40.675Z,18.22
2022-09-23T09:52:22.521Z,18.53
2022-09-23T09:54:52.951Z,18.69
2022-09-23T09:57:36.228Z,18.64
2022-09-23T10:00:25.379Z,18.72
2022-09-23T10:03:15.157Z,18.85
2022-09-23T10:05:47.627Z,19.15
2022-09-23T10:08:28.541Z,19.38
2022-09-23T10:11:02.746Z,19.27
2022-09-23T10:13:30.256Z,19.02
2022-09-23T10:15:59.020Z,18.63
2022-09-23T10:18:48.627Z,17.92
2022-09-23T10:21:25.472Z,18.83
2022-09-23T10:23:57.948Z,18.63
2022-09-23T10:26:31.321Z,19.66
2022-09-23T10:28:59.771Z,20.14
2022-09-23T10:31:34.790Z,20.60
2022-09-23T10:34:12.805Z,20.28
2022-09-23T10:36:44.316Z,21.18
2022-09-23T10:39:30.204Z,21.53
2022-09-23T10:42:22.471Z,21.85
2022-09-23T10:45:29.676Z,22.14
2022-09-23T10:48:05.397Z,22.40
2022-09-23T10:50:51.747Z,22.50
2022-09-23T10:53:29.987Z,22.39
2022-09-23T10:56:24.932Z,22.68
2022-09-23T10:59:07.518Z,23.21
2022-09-23T11:01:46.242Z,23.85
2022-09-23T11:04:39.862Z,22.76
2022-09-23T11:07:28.713Z,21.70
2022-09-23T11:10:28.945Z,22.23
2022-09-23T11:13:11.280Z,21.63
2022-09-23T11:15:48.680Z,21.19
2022-09-23T11:18:29.304Z,21.36
2022-09-23T11:21:01.868Z,21.44
2022-09-23T11:23:54.340Z,21.22
2022-09-23T11:26:33.334Z,21.07
2022-09-23T11:29:20.291Z,20.92
2022-09-23T11:32:22.564Z,20.31
2022-09-23T11:35:11.153Z,19.94
2022-09-23T11:37:46.203Z,20.21
2022-09-23T11:40:23.644Z,20.87
2022-09-23T11:43:15.809Z,21.06
2022-09-23T11:46:09.667Z,21.25
2022-09-23T11:48:59.101Z,22.00
2022-09-23T11:51:59.728Z,22.51
2022-09-23T11:54:34.976Z,22.09
2022-09-23T11:57:04.089Z,20.89
2022-09-23T11:59:40.320Z,21.45
2022-09-23T12:02:59.061Z,21.46
2022-09-23T12:05:39.890Z,22.19
2022-09-23T12:08:22.344Z,22.70
2022-09-23T12:10:53.728Z,22.88
2022-09-23T12:13:31.778Z,23.47
2022-09-23T12:16:17.552Z,23.57
2022-09-23T12:18:59.228Z,23.30
2022-09-23T12:21:51.453Z,23.07
2022-09-23T12:24:19.277Z,23.52
2022-09-23T12:26:50.595Z,22.75
2022-09-23T12:29:20.106Z,22.72
2022-09-23T12:31:48.214Z,23.82
2022-09-23T12:34:33.482Z,23.18
2022-09-23T12:37:04.201Z,24.59
2022-09-23T12:39:35.497Z,24.45
2022-09-23T12:42:04.602Z,25.05
2022-09-23T12:44:36.849Z,25.40
2022-09-23T12:47:25.727Z,25.91
2022-09-23T12:50:01.169Z,25.41
2022-09-23T12:52:30.923Z,25.52
2022-09-23T12:55:11.680Z,25.53
2022-09-23T12:57:41.888Z,25.48
2022-09-23T13:00:22.878Z,26.11
2022-09-23T13:03:16.754Z,25.62
2022-09-23T13:06:09.148Z,23.73
2022-09-23T13:08:38.402Z,21.51
2022-09-23T13:11:26.728Z,21.79
2022-09-23T13:13:55.664Z,21.36
2022-09-23T13:16:22.239Z,21.69
2022-09-23T13:18:54.522Z,21.65
2022-09-23T13:21:43.033Z,21.36
2022-09-23T13:24:14.960Z,20.82
2022-09-23T13:26:52.402Z,20.31
2022-09-23T13:29:35.161Z,20.30
2022-09-23T13:32:03.753Z,19.40
2022-09-23T13:34:38.573Z,19.31
2022-09-23T13:37:22.649Z,19.56
2022-09-23T13:39:50.211Z,20.08
2022-09-23T13:42:29.317Z,19.76
2022-09-23T13:45:01.148Z,20.63
2022-09-23T13:47:31.044Z,21.90
2022-09-23T13:49:57.972Z,22.85
2022-09-23T13:52:30.006Z,25.08
2022-09-23T13:54:59.033Z,25.53
2022-09-23T13:57:26.629Z,25.83
2022-09-23T13:59:53.670Z,24.96
2022-09-23T14:02:28.382Z,23.12
2022-09-23T14:05:21.507Z,22.70
2022-09-23T14:07:51.753Z,22.54
2022-09-23T14:10:21.281Z,21.91
2022-09-23T14:12:51.454Z,21.47
2022-09-23T14:15:22.813Z,21.01
2022-09-23T14:17:59.105Z,20.42
2022-09-23T14:20:25.959Z,19.87
2022-09-23T14:23:14.743Z,20.28
2022-09-23T14:25:44.702Z,20.15
2022-09-23T14:28:16.961Z,20.01
2022-09-23T14:30:46.252Z,20.09
2022-09-23T14:33:27.416Z,22.10
2022-09-23T14:36:07.007Z,24.75
2022-09-23T14:38:51.881Z,25.73
2022-09-23T14:41:26.093Z,26.84
2022-09-23T14:44:02.548Z,27.14
2022-09-23T14:46:31.370Z,28.78
2022-09-23T14:49:07.101Z,29.32
2022-09-23T14:51:46.302Z,28.30
2022-09-23T14:54:23.354Z,28.49
2022-09-23T14:56:50.566Z,28.23
2022-09-23T14:59:47.494Z,28.58
2022-09-23T15:02:35.473Z,29.33
2022-09-23T15:05:22.680Z,29.43
2022-09-23T15:07:53.008Z,28.81
2022-09-23T15:10:32.862Z,27.76
2022-09-23T15:13:09.754Z,26.85
2022-09-23T15:15:39.321Z,25.79
2022-09-23T15:18:13.699Z,25.43
2022-09-23T15:20:40.681Z,25.31
2022-09-23T15:23:39.049Z,25.06
2022-09-23T15:26:10.077Z,24.35
2022-09-23T15:28:37.008Z,23.91
2022-09-23T15:31:05.781Z,24.45
2022-09-23T15:33:32.702Z,24.79
2022-09-23T15:36:02.184Z,24.71
2022-09-23T15:38:28.887Z,25.55
2022-09-23T15:40:58.683Z,26.21
2022-09-23T15:43:27.921Z,26.80
2022-09-23T15:46:06.862Z,26.87
2022-09-23T15:48:58.445Z,25.50
2022-09-23T15:51:28.197Z,25.05
2022-09-23T15:53:59.535Z,24.91
2022-09-23T15:56:29.039Z,24.34
2022-09-23T15:59:00.863Z,24.05
2022-09-23T16:01:34.148Z,24.39
2022-09-23T16:04:03.972Z,23.92
2022-09-23T16:06:35.300Z,24.74
2022-09-23T16:09:02.567Z,23.87
2022-09-23T16:11:31.854Z,24.11
2022-09-23T16:14:00.684Z,24.01
2022-09-23T16:16:31.103Z,24.16
2022-09-23T16:19:00.361Z,23.79
2022-09-23T16:21:28.114Z,23.77
2022-09-23T16:23:59.293Z,22.34
2022-09-23T16:26:31.333Z,20.68
2022-09-23T16:28:58.800Z,21.19
2022-09-23T16:31:31.461Z,19.92
2022-09-23T16:34:02.217Z,20.77
2022-09-23T16:36:35.725Z,20.48
2022-09-23T16:39:07.780Z,19.65
2022-09-23T16:41:37.224Z,19.01
2022-09-23T16:44:06.342Z,19.59
2022-09-23T16:46:33.092Z,19.60
2022-09-23T16:49:00.438Z,19.57
2022-09-23T16:51:29.446Z,19.49
2022-09-23T16:54:01.939Z,19.43
2022-09-23T16:56:33.378Z,18.07
2022-09-23T16:59:00.218Z,18.38
2022-09-23T17:01:47.147Z,18.43
2022-09-23T17:04:15.358Z,18.81
2022-09-23T17:06:52.322Z,18.01
2022-09-23T17:09:21.559Z,18.27
2022-09-23T17:11:59.267Z,18.49
2022-09-23T17:14:29.475Z,16.96
2022-09-23T17:16:58.643Z,17.78
2022-09-23T17:19:25.227Z,17.83
2022-09-23T17:21:55.649Z,16.94
2022-09-23T17:24:24.594Z,17.01
2022-09-23T17:26:53.668Z,16.46
2022-09-23T17:29:20.477Z,16.32
2022-09-23T17:31:47.267Z,17.30
2022-09-23T17:34:14.002Z,16.43
2022-09-23T17:36:40.806Z,15.98
2022-09-23T17:39:09.923Z,17.07
2022-09-23T17:41:37.454Z,16.99
2022-09-23T17:44:08.081Z,16.31
2022-09-23T17:46:37.396Z,16.86
2022-09-23T17:49:06.146Z,16.78
2022-09-23T17:51:33.275Z,16.12
2022-09-23T17:54:02.227Z,16.36
2022-09-23T17:56:32.801Z,15.65
2022-09-23T17:59:01.622Z,16.52
2022-09-23T18:01:28.620Z,15.50
2022-09-23T18:03:56.494Z,16.09
2022-09-23T18:06:25.058Z,15.74
2022-09-23T18:08:52.123Z,15.61
2022-09-23T18:11:27.129Z,16.10
2022-09-23T18:13:58.750Z,16.02
2022-09-23T18:16:28.120Z,15.94
2022-09-23T18:19:01.460Z,15.62
2022-09-23T18:21:35.844Z,15.75
2022-09-23T18:26:53.996Z,14.74
2022-09-23T18:29:20.727Z,15.30
2022-09-23T18:31:49.337Z,15.34
2022-09-23T18:34:21.740Z,15.28
2022-09-23T18:36:48.529Z,15.37
2022-09-23T18:39:15.441Z,15.41
2022-09-23T18:41:42.389Z,14.60
2022-09-23T18:44:12.327Z,15.22
2022-09-23T18:46:39.003Z,14.42
2022-09-23T18:49:24.258Z,14.97
2022-09-23T18:51:51.851Z,14.88
2022-09-23T18:54:22.422Z,14.19
2022-09-23T18:56:53.072Z,14.65
2022-09-23T18:59:24.134Z,14.67
2022-09-23T19:01:51.490Z,14.70
2022-09-23T19:04:22.115Z,14.71
2022-09-23T19:06:51.480Z,13.73
2022-09-23T19:09:18.251Z,14.63
2022-09-23T19:11:45.354Z,14.65
2022-09-23T19:14:12.837Z,14.12
2022-09-23T19:16:40.526Z,14.66
2022-09-23T19:19:09.951Z,14.60
2022-09-23T19:21:37.403Z,14.53
2022-09-23T19:24:07.039Z,14.57
2022-09-23T19:26:43.363Z,13.82
2022-09-23T19:29:14.292Z,14.52
2022-09-23T19:31:42.003Z,14.00
2022-09-23T19:34:23.880Z,14.32
2022-09-23T19:36:53.423Z,14.26
2022-09-23T19:39:24.205Z,14.20
2022-09-23T19:41:59.793Z,13.68
2022-09-23T19:44:32.832Z,13.82
2022-09-23T19:47:01.745Z,13.53
2022-09-23T19:49:32.387Z,14.01
2022-09-23T19:52:01.655Z,13.74
2022-09-23T19:54:36.304Z,13.56
2022-09-23T19:57:05.027Z,13.25
2022-09-23T19:59:31.735Z,13.30
2022-09-23T20:02:00.714Z,13.19
2022-09-23T20:04:27.487Z,13.35
2022-09-23T20:06:59.485Z,13.34
2022-09-23T20:09:28.944Z,13.34
2022-09-23T20:12:02.463Z,13.46
2022-09-23T20:14:29.671Z,13.30
2022-09-23T20:16:56.357Z,13.04
2022-09-23T20:19:35.589Z,13.37
2022-09-23T20:22:32.397Z,13.40
2022-09-23T20:25:13.308Z,13.35
2022-09-23T20:27:40.383Z,12.69
2022-09-23T20:30:09.967Z,13.05
2022-09-23T20:32:43.956Z,13.14
2022-09-23T20:35:12.799Z,12.89
2022-09-23T20:37:42.125Z,12.61
2022-09-23T20:40:17.723Z,13.00
2022-09-23T20:42:44.410Z,12.97
2022-09-23T20:45:13.334Z,12.25
2022-09-23T20:47:46.016Z,12.72
2022-09-23T20:50:12.736Z,12.40
2022-09-23T20:52:39.425Z,12.77
2022-09-23T20:55:09.361Z,12.75
2022-09-23T20:57:37.246Z,12.90
2022-09-23T21:00:04.761Z,12.88
2022-09-23T21:02:34.216Z,12.79
2022-09-23T21:05:00.945Z,12.72
2022-09-23T21:07:32.378Z,12.65
2022-09-23T21:10:01.881Z,12.33
2022-09-23T21:12:28.610Z,12.42
2022-09-23T21:14:55.233Z,11.88
2022-09-23T21:17:21.926Z,11.69
2022-09-23T21:19:48.608Z,11.90
2022-09-23T21:22:18.217Z,12.23
2022-09-23T21:25:26.946Z,11.91
2022-09-23T21:27:40.594Z,12.17
2022-09-23T21:30:10.260Z,11.91
2022-09-23T21:32:36.965Z,12.30
2022-09-23T21:35:10.276Z,11.55
2022-09-23T21:37:37.188Z,12.25
2022-09-23T21:40:35.662Z,11.94
2022-09-23T21:43:02.357Z,12.16
2022-09-23T21:45:31.724Z,11.76
2022-09-23T21:47:58.593Z,12.17
2022-09-23T21:50:29.478Z,11.38
2022-09-23T21:52:58.293Z,11.64
2022-09-23T21:55:27.739Z,11.69
2022-09-23T21:57:54.206Z,11.86
2022-09-23T22:00:20.969Z,11.86
2022-09-23T22:02:47.672Z,11.76
2022-09-23T22:05:16.572Z,11.92
2022-09-23T22:07:50.664Z,11.84
2022-09-23T22:10:19.539Z,11.51
2022-09-23T22:12:48.710Z,11.70
2022-09-23T22:15:20.405Z,11.28
2022-09-23T22:17:50.042Z,11.01
2022-09-23T22:20:17.006Z,11.51
2022-09-23T22:22:46.139Z,11.00
2022-09-23T22:25:12.822Z,11.64
2022-09-23T22:27:59.457Z,11.10
2022-09-23T22:30:47.322Z,11.59
2022-09-23T22:33:19.576Z,11.39
2022-09-23T22:35:46.468Z,10.98
2022-09-23T22:38:13.110Z,11.61
2022-09-23T22:40:43.002Z,11.31
2022-09-23T22:43:28.135Z,10.96
2022-09-23T22:45:54.834Z,10.63
2022-09-23T22:48:21.603Z,11.36
2022-09-23T22:50:48.318Z,11.10
2022-09-23T22:53:17.660Z,10.75
2022-09-23T22:55:44.336Z,10.75
2022-09-23T22:58:31.069Z,10.36
2022-09-23T23:00:58.278Z,10.36
2022-09-23T23:03:26.722Z,10.55
2022-09-23T23:05:57.471Z,10.73
2022-09-23T23:08:30.612Z,11.18
2022-09-23T23:11:02.433Z,11.11
2022-09-23T23:13:33.012Z,11.05
2022-09-23T23:16:04.871Z,11.01
2022-09-23T23:18:35.561Z,10.72
2022-09-23T23:21:15.361Z,10.52
2022-09-23T23:23:44.593Z,11.05
2022-09-23T23:26:14.711Z,11.02
2022-09-23T23:28:46.686Z,10.46
2022-09-23T23:31:17.747Z,10.57
2022-09-23T23:33:45.400Z,10.23
2022-09-23T23:36:16.711Z,11.02
2022-09-23T23:38:47.675Z,10.54
2022-09-23T23:41:20.202Z,10.51
2022-09-23T23:43:57.028Z,10.75
2022-09-23T23:46:30.082Z,10.60
2022-09-23T23:48:57.546Z,10.41
2022-09-23T23:51:27.962Z,10.63
2022-09-23T23:53:55.232Z,10.26
2022-09-23T23:56:28.240Z,10.75
2022-09-23T23:58:58.232Z,10.41
